createdAt,value
2022-10-18T00:00:35.500Z,15.15
2022-10-18T00:03:37.629Z,7.88
2022-10-18T00:06:42.616Z,6.13
2022-10-18T00:09:45.173Z,5.82
2022-10-18T00:15:59.081Z,5.72
2022-10-18T00:19:00.800Z,12.57
2022-10-18T00:22:02.312Z,12.63
2022-10-18T00:25:05.417Z,6.95
2022-10-18T00:28:06.934Z,5.83
2022-10-18T00:31:14.669Z,5.97
2022-10-18T00:34:16.918Z,6.28
2022-10-18T00:37:18.760Z,5.25
2022-10-18T00:40:20.289Z,5.38
2022-10-18T00:43:21.808Z,5.22
2022-10-18T00:46:25.008Z,5.40
2022-10-18T00:49:32.548Z,5.30
2022-10-18T00:52:40.309Z,5.28
2022-10-18T00:55:42.013Z,6.07
2022-10-18T00:58:44.544Z,5.20
2022-10-18T01:01:46.997Z,5.35
2022-10-18T01:04:48.750Z,5.00
2022-10-18T01:08:06.379Z,5.35
2022-10-18T01:11:46.408Z,5.63
2022-10-18T01:15:31.585Z,5.40
2022-10-18T01:18:41.576Z,5.22
2022-10-18T01:21:50.048Z,5.80
2022-10-18T01:25:14.154Z,5.35
2022-10-18T01:28:24.723Z,5.72
2022-10-18T01:31:36.697Z,5.45
2022-10-18T01:34:40.479Z,5.20
2022-10-18T01:37:45.132Z,4.88
2022-10-18T01:40:50.301Z,5.40
2022-10-18T01:43:58.656Z,5.05
2022-10-18T01:47:01.153Z,5.28
2022-10-18T01:50:06.160Z,5.20
2022-10-18T01:53:21.671Z,5.18
2022-10-18T01:56:55.041Z,5.40
2022-10-18T02:00:11.383Z,5.13
2022-10-18T02:03:23.945Z,5.40
2022-10-18T02:06:31.756Z,5.20
2022-10-18T02:09:42.815Z,5.80
2022-10-18T02:12:46.676Z,5.88
2022-10-18T02:15:52.460Z,6.30
2022-10-18T02:19:00.897Z,5.53
2022-10-18T02:22:04.378Z,6.30
2022-10-18T02:25:13.484Z,5.57
2022-10-18T02:28:15.368Z,5.07
2022-10-18T02:31:27.114Z,5.47
2022-10-18T02:34:42.414Z,5.15
2022-10-18T02:37:46.737Z,5.75
2022-10-18T02:40:48.248Z,6.07
2022-10-18T02:43:49.789Z,6.07
2022-10-18T02:46:52.481Z,5.40
2022-10-18T02:49:53.956Z,5.95
2022-10-18T02:52:55.519Z,5.05
2022-10-18T02:55:57.052Z,4.78
2022-10-18T02:58:58.532Z,5.05
2022-10-18T03:02:00.035Z,5.15
2022-10-18T03:05:01.668Z,5.43
2022-10-18T03:08:03.317Z,5.80
2022-10-18T03:11:04.872Z,5.07
2022-10-18T03:14:06.449Z,5.32
2022-10-18T03:17:08.140Z,5.28
2022-10-18T03:20:10.212Z,5.78
2022-10-18T03:23:11.668Z,5.30
2022-10-18T03:26:13.166Z,6.00
2022-10-18T03:29:14.688Z,5.88
2022-10-18T03:32:16.163Z,6.13
2022-10-18T03:35:17.804Z,5.78
2022-10-18T03:38:19.314Z,5.25
2022-10-18T03:41:20.906Z,5.47
2022-10-18T03:44:22.411Z,6.10
2022-10-18T03:47:24.024Z,6.28
2022-10-18T03:50:25.524Z,5.68
2022-10-18T03:53:27.035Z,5.85
2022-10-18T03:56:28.579Z,6.30
2022-10-18T03:59:30.067Z,5.70
2022-10-18T04:02:31.933Z,6.05
2022-10-18T04:05:34.498Z,5.55
2022-10-18T04:08:36.212Z,5.78
2022-10-18T04:11:37.828Z,6.35
2022-10-18T04:14:39.334Z,6.80
2022-10-18T04:17:41.422Z,5.75
2022-10-18T04:20:42.886Z,6.40
2022-10-18T04:23:46.862Z,6.15
2022-10-18T04:26:48.508Z,6.82
2022-10-18T04:29:49.986Z,6.20
2022-10-18T04:32:51.532Z,6.13
2022-10-18T04:35:53.374Z,7.00
2022-10-18T04:38:54.844Z,6.65
2022-10-18T04:41:56.354Z,8.10
2022-10-18T04:44:57.853Z,6.97
2022-10-18T04:47:59.331Z,6.03
2022-10-18T04:51:00.931Z,6.60
2022-10-18T04:54:02.681Z,6.50
2022-10-18T04:57:04.425Z,7.28
2022-10-18T05:00:06.496Z,7.13
2022-10-18T05:03:08.605Z,6.93
2022-10-18T05:06:10.266Z,7.00
2022-10-18T05:09:11.839Z,7.20
2022-10-18T05:12:13.315Z,7.10
2022-10-18T05:15:14.982Z,6.03
2022-10-18T05:18:18.811Z,7.10
2022-10-18T05:21:20.409Z,6.55
2022-10-18T05:24:24.206Z,6.68
2022-10-18T05:27:29.231Z,6.97
2022-10-18T05:30:30.760Z,7.50
2022-10-18T05:33:32.927Z,7.03
2022-10-18T05:36:34.399Z,6.90
2022-10-18T05:39:37.303Z,7.88
2022-10-18T05:42:38.746Z,6.82
2022-10-18T05:45:40.198Z,6.63
2022-10-18T05:48:43.163Z,7.28
2022-10-18T05:51:44.636Z,6.50
2022-10-18T05:54:48.628Z,6.75
2022-10-18T06:00:52.035Z,7.95
2022-10-18T06:03:53.492Z,7.40
2022-10-18T06:06:57.576Z,7.72
2022-10-18T06:13:00.407Z,6.93
2022-10-18T06:16:01.930Z,7.47
2022-10-18T06:19:03.741Z,7.78
2022-10-18T06:22:05.296Z,7.85
2022-10-18T06:25:07.033Z,7.13
2022-10-18T06:28:10.256Z,7.35
2022-10-18T06:31:14.337Z,6.70
2022-10-18T06:34:15.762Z,7.25
2022-10-18T06:37:17.343Z,7.75
2022-10-18T06:40:18.798Z,7.60
2022-10-18T06:43:21.514Z,8.07
2022-10-18T06:46:24.085Z,7.53
2022-10-18T06:49:25.609Z,7.95
2022-10-18T06:52:27.076Z,7.45
2022-10-18T06:55:28.764Z,7.53
2022-10-18T06:58:30.986Z,6.82
2022-10-18T07:01:32.535Z,6.55
2022-10-18T07:04:34.129Z,7.53
2022-10-18T07:07:35.895Z,6.75
2022-10-18T07:10:37.608Z,7.43
2022-10-18T07:13:39.064Z,7.38
2022-10-18T07:16:40.483Z,6.57
2022-10-18T07:19:42.005Z,6.80
2022-10-18T07:22:43.438Z,7.07
2022-10-18T07:25:44.969Z,7.95
2022-10-18T07:28:49.706Z,8.45
2022-10-18T07:31:51.244Z,6.85
2022-10-18T07:34:52.692Z,5.00
2022-10-18T07:37:54.121Z,5.38
2022-10-18T07:41:00.152Z,6.05
2022-10-18T07:44:02.586Z,5.18
2022-10-18T07:47:04.132Z,5.78
2022-10-18T07:50:08.389Z,6.07
2022-10-18T07:53:09.852Z,5.30
2022-10-18T07:56:16.966Z,5.50
2022-10-18T07:59:18.436Z,4.82
2022-10-18T08:02:19.935Z,4.68
2022-10-18T08:05:21.391Z,4.40
2022-10-18T08:08:24.278Z,4.25
2022-10-18T08:11:26.140Z,4.75
2022-10-18T08:14:27.652Z,4.70
2022-10-18T08:17:29.197Z,4.88
2022-10-18T08:20:32.012Z,4.63
2022-10-18T08:23:33.865Z,4.53
2022-10-18T08:26:35.377Z,5.13
2022-10-18T08:29:36.850Z,5.00
2022-10-18T08:32:38.419Z,4.30
2022-10-18T08:35:39.845Z,4.45
2022-10-18T08:38:42.399Z,4.13
2022-10-18T08:42:14.626Z,4.60
2022-10-18T08:45:41.098Z,4.32
2022-10-18T08:48:43.255Z,4.60
2022-10-18T08:51:49.144Z,4.03
2022-10-18T08:55:03.332Z,4.30
2022-10-18T09:01:50.948Z,4.32
2022-10-18T09:05:16.708Z,4.63
2022-10-18T09:08:47.261Z,4.40
2022-10-18T09:12:26.291Z,4.68
2022-10-18T09:15:27.720Z,4.80
2022-10-18T09:18:54.648Z,4.80
2022-10-18T09:22:17.975Z,4.28
2022-10-18T09:25:35.278Z,4.55
2022-10-18T09:28:56.381Z,4.68
2022-10-18T09:32:04.704Z,4.68
2022-10-18T09:35:18.393Z,4.38
2022-10-18T09:41:53.280Z,4.82
2022-10-18T09:45:02.853Z,4.78
2022-10-18T09:48:11.444Z,4.93
2022-10-18T09:51:22.157Z,4.20
2022-10-18T09:54:33.858Z,5.15
2022-10-18T09:57:41.081Z,4.80
2022-10-18T10:00:48.236Z,4.50
2022-10-18T10:03:49.989Z,4.45
2022-10-18T10:06:53.981Z,4.40
2022-10-18T10:13:26.148Z,4.90
2022-10-18T10:16:28.016Z,4.55
2022-10-18T10:19:55.319Z,4.30
2022-10-18T10:23:07.113Z,4.35
2022-10-18T10:26:29.982Z,4.07
2022-10-18T10:29:46.806Z,4.28
2022-10-18T10:32:50.755Z,4.65
2022-10-18T10:35:58.316Z,4.55
2022-10-18T10:39:19.043Z,4.35
2022-10-18T10:42:20.588Z,4.22
2022-10-18T10:45:27.352Z,4.90
2022-10-18T10:48:33.999Z,4.72
2022-10-18T10:51:38.412Z,4.30
2022-10-18T10:54:45.571Z,3.90
2022-10-18T10:57:52.207Z,4.57
2022-10-18T11:00:56.248Z,4.38
2022-10-18T11:04:22.837Z,3.90
2022-10-18T11:07:36.490Z,3.80
2022-10-18T11:11:07.285Z,4.78
2022-10-18T11:14:31.870Z,4.93
2022-10-18T11:17:44.511Z,4.30
2022-10-18T11:21:16.601Z,4.60
2022-10-18T11:24:18.232Z,4.22
2022-10-18T11:27:28.277Z,4.55
2022-10-18T11:30:36.955Z,3.90
2022-10-18T11:34:08.311Z,4.50
2022-10-18T11:37:53.608Z,4.97
2022-10-18T11:41:37.352Z,4.20
2022-10-18T11:45:27.030Z,4.45
2022-10-18T11:48:34.634Z,4.25
2022-10-18T11:52:19.555Z,4.43
2022-10-18T11:58:37.881Z,4.40
2022-10-18T12:02:05.221Z,4.55
2022-10-18T12:05:23.216Z,4.35
2022-10-18T12:08:31.582Z,3.85
2022-10-18T12:11:41.846Z,4.15
2022-10-18T12:14:53.012Z,4.38
2022-10-18T12:17:58.432Z,4.72
2022-10-18T12:21:01.871Z,4.85
2022-10-18T12:24:11.270Z,4.45
2022-10-18T12:27:15.716Z,4.57
2022-10-18T12:30:27.034Z,4.28
2022-10-18T12:33:35.813Z,4.13
2022-10-18T12:36:53.729Z,4.55
2022-10-18T12:40:15.525Z,4.15
2022-10-18T12:43:26.392Z,4.47
2022-10-18T12:46:45.543Z,4.95
2022-10-18T12:49:56.848Z,4.45
2022-10-18T12:53:06.680Z,4.20
2022-10-18T12:56:30.128Z,4.15
2022-10-18T12:59:31.641Z,4.87
2022-10-18T13:02:33.502Z,5.03
2022-10-18T13:05:55.580Z,4.60
2022-10-18T13:09:19.935Z,4.57
2022-10-18T13:12:21.368Z,4.10
2022-10-18T13:15:41.334Z,4.13
2022-10-18T13:18:54.975Z,4.25
2022-10-18T13:22:24.388Z,4.60
2022-10-18T13:25:49.915Z,4.20
2022-10-18T13:29:18.620Z,4.45
2022-10-18T13:32:36.863Z,3.97
2022-10-18T13:35:40.670Z,4.00
2022-10-18T13:41:49.932Z,3.83
2022-10-18T13:44:52.260Z,4.43
2022-10-18T13:47:53.758Z,3.83
2022-10-18T13:51:09.856Z,3.88
2022-10-18T13:54:22.430Z,4.15
2022-10-18T13:57:34.481Z,4.38
2022-10-18T14:00:54.056Z,4.25
2022-10-18T14:04:16.619Z,3.85
2022-10-18T14:07:19.273Z,3.92
2022-10-18T14:10:43.302Z,4.25
2022-10-18T14:13:56.196Z,3.90
2022-10-18T14:17:17.894Z,4.05
2022-10-18T14:20:28.717Z,4.00
2022-10-18T14:23:43.150Z,3.80
2022-10-18T14:26:44.716Z,3.35
2022-10-18T14:29:47.353Z,4.30
2022-10-18T14:32:54.328Z,4.13
2022-10-18T14:36:16.062Z,5.07
2022-10-18T14:39:23.986Z,4.32
2022-10-18T14:42:27.264Z,4.22
2022-10-18T14:45:28.779Z,4.45
2022-10-18T14:48:30.260Z,3.97
2022-10-18T14:51:35.370Z,4.40
2022-10-18T14:54:38.146Z,4.18
2022-10-18T14:57:39.816Z,4.15
2022-10-18T15:00:43.878Z,3.88
2022-10-18T15:03:48.302Z,4.35
2022-10-18T15:06:50.119Z,3.97
2022-10-18T15:09:52.110Z,4.20
2022-10-18T15:13:10.478Z,4.35
2022-10-18T15:16:18.328Z,4.65
2022-10-18T15:19:30.025Z,4.20
2022-10-18T15:22:33.322Z,4.32
2022-10-18T15:25:35.912Z,4.10
2022-10-18T15:28:51.083Z,4.10
2022-10-18T15:31:52.682Z,4.18
2022-10-18T15:34:54.823Z,4.85
2022-10-18T15:37:58.714Z,4.63
2022-10-18T15:41:00.253Z,4.13
2022-10-18T15:44:19.185Z,4.20
2022-10-18T15:47:24.888Z,4.47
2022-10-18T15:50:50.611Z,4.97
2022-10-18T15:53:54.241Z,4.55
2022-10-18T15:56:56.564Z,4.72
2022-10-18T16:00:03.692Z,4.47
2022-10-18T16:03:14.451Z,4.90
2022-10-18T16:06:18.251Z,5.82
2022-10-18T16:09:22.454Z,6.97
2022-10-18T16:15:25.315Z,5.32
2022-10-18T16:18:26.872Z,4.85
2022-10-18T16:21:37.187Z,5.05
2022-10-18T16:24:39.162Z,5.22
2022-10-18T16:27:40.718Z,5.53
2022-10-18T16:30:44.981Z,5.07
2022-10-18T16:33:46.758Z,4.93
2022-10-18T16:36:48.321Z,5.40
2022-10-18T16:39:49.923Z,4.90
2022-10-18T16:42:51.490Z,5.45
2022-10-18T16:45:54.199Z,5.55
2022-10-18T16:48:56.063Z,5.65
2022-10-18T16:51:57.778Z,5.45
2022-10-18T16:54:59.301Z,6.18
2022-10-18T16:58:00.839Z,5.97
2022-10-18T17:01:04.221Z,6.85
2022-10-18T17:04:08.315Z,6.47
2022-10-18T17:10:28.325Z,7.00
2022-10-18T17:13:29.888Z,7.68
2022-10-18T17:16:33.582Z,12.65
2022-10-18T17:19:35.242Z,7.10
2022-10-18T17:22:36.805Z,6.18
2022-10-18T17:25:51.451Z,6.47
2022-10-18T17:29:05.082Z,6.83
2022-10-18T17:32:07.689Z,6.97
2022-10-18T17:35:09.512Z,6.82
2022-10-18T17:38:11.288Z,7.30
2022-10-18T17:41:12.990Z,6.82
2022-10-18T17:44:14.576Z,7.15
2022-10-18T17:47:16.033Z,6.63
2022-10-18T17:50:17.685Z,7.93
2022-10-18T17:53:22.773Z,7.38
2022-10-18T17:56:24.767Z,7.63
2022-10-18T17:59:26.282Z,7.72
2022-10-18T18:02:27.861Z,8.38
2022-10-18T18:05:33.935Z,8.90
2022-10-18T18:08:35.428Z,9.20
2022-10-18T18:11:39.244Z,8.10
2022-10-18T18:14:40.775Z,7.85
2022-10-18T18:17:58.243Z,7.95
2022-10-18T18:20:59.968Z,7.13
2022-10-18T18:24:01.652Z,7.57
2022-10-18T18:27:03.147Z,7.68
2022-10-18T18:30:07.600Z,7.35
2022-10-18T18:33:13.735Z,7.90
2022-10-18T18:36:18.105Z,6.88
2022-10-18T18:39:24.902Z,7.30
2022-10-18T18:42:26.388Z,6.93
2022-10-18T18:45:29.142Z,6.80
2022-10-18T18:48:33.464Z,7.13
2022-10-18T18:51:37.938Z,6.78
2022-10-18T18:54:39.479Z,7.65
2022-10-18T18:57:41.061Z,6.22
2022-10-18T19:00:44.568Z,7.28
2022-10-18T19:03:48.931Z,7.00
2022-10-18T19:06:50.416Z,6.65
2022-10-18T19:09:52.085Z,6.85
2022-10-18T19:12:53.939Z,6.50
2022-10-18T19:16:16.869Z,6.32
2022-10-18T19:19:21.263Z,6.63
2022-10-18T19:22:22.743Z,6.78
2022-10-18T19:25:26.272Z,6.10
2022-10-18T19:28:28.760Z,6.50
2022-10-18T19:31:30.390Z,5.80
2022-10-18T19:34:34.306Z,6.70
2022-10-18T19:37:36.125Z,5.97
2022-10-18T19:40:37.642Z,6.65
2022-10-18T19:43:39.081Z,6.53
2022-10-18T19:46:40.567Z,6.40
2022-10-18T19:53:15.665Z,6.10
2022-10-18T19:56:20.329Z,6.13
2022-10-18T19:59:22.821Z,6.13
2022-10-18T20:02:24.380Z,5.85
2022-10-18T20:05:25.813Z,6.15
2022-10-18T20:08:29.614Z,6.10
2022-10-18T20:11:32.619Z,6.25
2022-10-18T20:14:34.252Z,6.78
2022-10-18T20:17:35.855Z,6.75
2022-10-18T20:20:37.598Z,6.90
2022-10-18T20:23:41.510Z,7.05
2022-10-18T20:26:43.712Z,6.38
2022-10-18T20:29:46.824Z,6.93
2022-10-18T20:32:51.642Z,6.80
2022-10-18T20:35:53.300Z,7.35
2022-10-18T20:38:55.339Z,7.05
2022-10-18T20:41:56.846Z,7.45
2022-10-18T20:44:58.492Z,7.20
2022-10-18T20:48:00.118Z,7.65
2022-10-18T20:51:07.030Z,6.90
2022-10-18T20:54:10.091Z,6.78
2022-10-18T20:57:11.646Z,7.30
2022-10-18T21:00:13.718Z,7.03
2022-10-18T21:03:15.274Z,6.82
2022-10-18T21:06:19.389Z,7.10
2022-10-18T21:09:21.253Z,6.57
2022-10-18T21:12:23.988Z,7.15
2022-10-18T21:15:27.058Z,6.78
2022-10-18T21:18:31.249Z,5.80
2022-10-18T21:21:33.419Z,6.43
2022-10-18T21:24:35.078Z,6.28
2022-10-18T21:27:36.737Z,6.28
2022-10-18T21:30:38.293Z,6.75
2022-10-18T21:33:41.233Z,6.25
2022-10-18T21:36:44.987Z,6.65
2022-10-18T21:39:46.597Z,6.80
2022-10-18T21:42:48.071Z,6.38
2022-10-18T21:45:49.549Z,6.50
2022-10-18T21:48:52.661Z,6.07
2022-10-18T21:51:54.278Z,6.55
2022-10-18T21:54:55.866Z,6.25
2022-10-18T21:57:57.525Z,6.50
2022-10-18T22:00:59.117Z,7.00
2022-10-18T22:04:03.916Z,7.13
2022-10-18T22:07:05.472Z,6.50
2022-10-18T22:10:07.319Z,6.47
2022-10-18T22:13:08.789Z,6.35
2022-10-18T22:16:12.393Z,6.00
2022-10-18T22:19:14.054Z,6.55
2022-10-18T22:22:15.597Z,5.93
2022-10-18T22:25:17.167Z,6.80
2022-10-18T22:28:18.721Z,5.90
2022-10-18T22:31:22.635Z,6.38
2022-10-18T22:34:29.006Z,6.25
2022-10-18T22:37:30.781Z,6.20
2022-10-18T22:40:32.450Z,6.10
2022-10-18T22:43:35.027Z,5.50
2022-10-18T22:46:36.561Z,6.10
2022-10-18T22:49:38.119Z,5.60
2022-10-18T22:52:39.674Z,7.38
2022-10-18T22:55:41.229Z,6.35
2022-10-18T22:58:42.888Z,6.60
2022-10-18T23:01:44.347Z,6.22
2022-10-18T23:04:45.847Z,6.65
2022-10-18T23:07:49.230Z,6.20
2022-10-18T23:10:55.329Z,5.67
2022-10-18T23:13:57.017Z,6.05
2022-10-18T23:16:58.576Z,6.70
2022-10-18T23:20:00.064Z,6.70
2022-10-18T23:23:01.587Z,5.90
2022-10-18T23:26:05.540Z,5.72
2022-10-18T23:29:07.165Z,5.47
2022-10-18T23:32:08.965Z,5.85
2022-10-18T23:35:10.562Z,6.47
2022-10-18T23:38:12.071Z,5.28
2022-10-18T23:41:15.368Z,6.68
2022-10-18T23:44:16.886Z,6.03
2022-10-18T23:47:18.567Z,6.00
2022-10-18T23:50:20.101Z,5.82
2022-10-18T23:53:22.375Z,7.00
2022-10-18T23:56:24.039Z,6.32
2022-10-18T23:59:25.641Z,6.60
